Wednesday, September 17, 2014
03:38 UTC
  |  Log In   |  Register Free
Airport Search:

Hampton Roads Executive Airport
(KPVG)

Hampton Roads Executive Airport Diagram
No Airport Diagram Available

FAA data valid effective July 24, 2014 until September 18, 2014 (unless otherwise noted).

 
 
 
 
 
 
 
 
 
 
 
 
 
 

Current Aviation Weather for Hampton Roads Executive Airport (KPVG)

The most recent METAR observation for KPVG was updated at: 0313
METAR Summary (Translated METAR)
KPVG
170255Z AUTO 06005KT 10SM FEW046 SCT090 19/17 A3001 RMK AO1 52010
KCPK
170235Z AUTO 00000KT 10SM SCT041 BKN100 20/19 A3001 RMK AO2
(9.2 nm SE from KPVG)
KSFQ
170255Z AUTO 00000KT 10SM BKN030 BKN049 BKN100 20/18 A3001 RMK AO2 T01950176
(9.4 nm SW from KPVG)
TAF
No TAF information found within 50 nm of KPVG
  Airport Weather Conditions for KPVG

 Current Weather at PVG
66° F
Partly Cloudy
Northeast winds at 5.8 mph
PVG NOAA Radar

Pressure: 30.01 in
Humidity: 88%
Wind: Northeast at 5.8 MPH (5 KT)
Dew Point: 62.6°F
Visibility: 10.00 mi


Airport Weather Forecast for KPVG

Translated METAR and TAF for KPVG
Translated METAR for KPVG (0332 UTC 17 September 2014)
found at http://aviationweather.gov/adds/metars/
 
METAR text: KPVG 170315Z AUTO 00000KT 10SM BKN044 BKN050 19/16 A3003 RMK AO1
Conditions at: KPVG (NORFOLK/HAMPTON , VA, US) observed 0315 UTC 17 September 2014
Temperature: 19.0°C (66°F)
Dewpoint: 16.0°C (61°F) [RH = 83%]
Pressure (altimeter): 30.03 inches Hg (1017.0 mb)
Winds: calm
Visibility: 10 or more miles (16+ km)
Ceiling: 4400 feet AGL
Clouds: broken clouds at 4400 feet AGL
broken clouds at 5000 feet AGL
Weather: automated observation with no human augmentation;
there may or may not be significant weather present at this time
Translated TAF for KPVG

There is no translated TAF available for this airport

Find All Airport Services Find A Hotel Find A Rental Car Find A Golf Course Find A Restaurant $100 Hamburger



FBO's on the Field
FBO Company Facility Photos Services Transportation Aviation Fuel Prices: Prices include tax
Catering Weather Repair Courtesy Rental Type 100LL JetA JetA+ MOGAS 8087
 
Hampton Roads Executive Airport

This FBO has not yet been rated
FS:Shell
Last Updated: Sep-02
Login to update fuel prices
SS:
Contact Hampton Roads Executive AirportMore FBO Information
 
Add another FBO Facility Photos Catering Weather Repair Courtesy Rental Type 100LL JetA JetA+ MOGAS 8087
Services Transportation Aviation Fuel Prices: Prices include tax


model-print
model-print
model-print
model-print